Airfield :
LOGIN :

Register | Disclaimer

   EN    FR    IT 

 










Legend :    VFR   Marginal VFR   IFR   Intensive IFR   Very Intensive IFR
Visi :
Ceiling :
>= 8 km
>= 3000ft
5 to 8 km
1000 to 3000 ft
1500m to 5 km
500 to 1000 ft
800 to 1500m
200 to 500 ft
< 800m
< 200 ft
Symbols :   Thunderstorms  Fog  Heavy snow  Heavy precipitations  Wind > 20 kt
SIGMETs :     Misc.  Thunderstorms  Icing  Turbulence  Mountain Waves  Volcanic Ashes






- Airport Elevation : 499 ft
- IATA code : TLS


LFBO - Toulouse / Blagnac

CURRENT METAR :
  • 162000Z AUTO 15014KT 9999 FEW015 12/10 Q1022 BECMG BKN012

EXPIRED METARs :
  • 161930Z AUTO 15015KT 9999 FEW015 12/10 Q1022 BECMG BKN012
  • 161900Z AUTO 15016KT CAVOK 12/10 Q1022
  • 161830Z AUTO 15015KT CAVOK 13/10 Q1022 BECMG BKN012
  • 161800Z AUTO 15015KT 9999 FEW018 BKN250 13/10 Q1021 BECMG BKN012
  • 161730Z AUTO 14014KT 9999 FEW018 BKN240 13/10 Q1021 BECMG BKN012

TAF AMD TAF LFBO
Valid from the 16 at 20:00 until the 18 at 00:00 UTC


162003Z 1620/1724 14016KT 9999 SCT018
BECMG 1620/1622 BKN012
PROB40
TEMPO 1622/1706 OVC008
BECMG 1710/1712 29012KT BKN016 BKN035
TEMPO 1713/1716 RA
BECMG 1716/1718 SCT018 SCT035
ATIS : +33 5 62 74 66 36



MET'MAP, your aeronautical weather chart ! - Copyright ORBIFLY December 2007 - Disclaimer

ORBIFLY MET'MAP TEAM :

Programming & Development : Alexandra Zaïnal
Concept & original design : Baudouin d'Aumeries
Assistance for programming : Marc-Olivier Méhu
Technical & hardware support : Manuel Goepfert

Contact : metmap@orbifly.com




SOURCES & CREDITS :

   NOAA